Time;durP1;ratioP1;P1;durP2;ratioP2;P2;SDS_P1;SDS_P2;PMS_P1;PMS_P2;Temp;Humidity;BMP_temperature;BMP_pressure;BME280_temperature;BME280_humidity;BME280_pressure;Samples;Min_cycle;Max_cycle;Signal;HPM_P1;HPM_P2
2022/08/15 00:00:35;;;;;;;13.00;7.50;;;;;;;15.34;99.16;96606.02;109743;1250;59689;-72
2022/08/15 00:03:27;;;;;;;12.20;7.90;;;;;;;15.36;99.47;96609.91;111062;1247;70654;-70
2022/08/15 00:06:30;;;;;;;10.40;6.80;;;;;;;15.39;100.00;96606.71;110051;1247;68728;-73
2022/08/15 00:09:22;;;;;;;10.30;7.10;;;;;;;15.41;100.00;96606.16;110040;1247;68610;-71
2022/08/15 00:11:56;;;;;;;13.10;7.90;;;;;;;15.42;100.00;96604.45;110003;1247;59704;-71
2022/08/15 00:14:32;;;;;;;14.30;9.10;;;;;;;15.43;99.92;96608.54;110172;1247;59634;-70
2022/08/15 00:17:07;;;;;;;12.80;7.40;;;;;;;15.45;99.98;96610.69;110108;1247;70564;-71
2022/08/15 00:19:44;;;;;;;9.10;6.30;;;;;;;15.47;99.50;96613.21;109791;1250;68718;-71
2022/08/15 00:22:18;;;;;;;9.60;6.60;;;;;;;15.51;98.44;96614.77;110076;1247;68623;-70
2022/08/15 00:24:50;;;;;;;12.00;7.60;;;;;;;15.53;98.05;96614.72;110108;1247;59744;-69
2022/08/15 00:27:23;;;;;;;9.60;7.10;;;;;;;15.57;99.60;96613.27;110046;1247;59703;-69
2022/08/15 00:29:54;;;;;;;9.90;6.70;;;;;;;15.59;98.77;96610.74;110162;1247;71683;-70
2022/08/15 00:32:24;;;;;;;10.90;6.90;;;;;;;15.60;99.82;96612.06;110094;1247;69475;-69
2022/08/15 00:38:11;;;;;;;9.40;6.30;;;;;;;15.61;100.00;96610.02;109720;1248;59739;-70
2022/08/15 00:44:13;;;;;;;15.50;7.20;;;;;;;15.65;99.48;96605.73;110164;1247;70737;-70
2022/08/15 00:46:47;;;;;;;11.00;6.20;;;;;;;15.67;99.84;96611.48;110050;1247;69535;-70
2022/08/15 00:49:17;;;;;;;9.10;6.30;;;;;;;15.71;100.00;96612.83;110056;1247;68852;-68
2022/08/15 00:52:07;;;;;;;10.60;7.70;;;;;;;15.74;100.00;96611.59;110066;1247;59755;-70
2022/08/15 00:55:06;;;;;;;10.30;7.80;;;;;;;15.79;100.00;96611.98;110190;1247;59621;-69
2022/08/15 00:57:41;;;;;;;9.20;5.80;;;;;;;15.81;100.00;96606.52;110031;1247;71605;-70
2022/08/15 01:00:42;;;;;;;10.50;7.50;;;;;;;15.75;100.00;96606.09;110049;1247;68678;-69
2022/08/15 01:03:27;;;;;;;11.70;8.10;;;;;;;15.71;100.00;96608.09;110304;1246;69425;-71
2022/08/15 01:06:00;;;;;;;16.90;8.90;;;;;;;15.66;99.66;96609.70;109735;1250;59735;-71
2022/08/15 01:08:34;;;;;;;11.40;7.90;;;;;;;15.61;99.79;96604.45;110032;1247;59734;-73
2022/08/15 01:11:31;;;;;;;11.20;7.30;;;;;;;15.59;100.00;96602.05;109802;1250;70731;-70
2022/08/15 01:14:06;;;;;;;13.30;9.00;;;;;;;15.56;99.97;96601.77;110069;1247;68950;-70
2022/08/15 01:16:56;;;;;;;10.60;7.00;;;;;;;15.52;98.94;96602.67;110134;1247;68954;-70
2022/08/15 01:19:33;;;;;;;10.00;6.60;;;;;;;15.50;100.00;96608.23;109864;1250;59777;-69
2022/08/15 01:22:09;;;;;;;12.60;8.30;;;;;;;15.50;100.00;96611.35;110126;1247;59689;-70
2022/08/15 01:24:56;;;;;;;8.90;6.30;;;;;;;15.50;100.00;96616.95;110143;1246;71470;-71
2022/08/15 01:27:56;;;;;;;9.80;7.40;;;;;;;15.53;100.00;96618.80;110020;1247;68681;-69
2022/08/15 01:30:33;;;;;;;10.50;7.40;;;;;;;15.55;100.00;96619.92;110051;1247;69271;-69
2022/08/15 01:33:25;;;;;;;12.00;7.80;;;;;;;15.57;100.00;96623.27;110072;1247;59754;-71
2022/08/15 01:35:59;;;;;;;13.10;7.70;;;;;;;15.59;100.00;96622.89;110084;1248;59670;-70
2022/08/15 01:38:35;;;;;;;13.70;7.80;;;;;;;15.61;100.00;96626.35;110102;1247;70564;-71
2022/08/15 01:41:39;;;;;;;9.60;6.40;;;;;;;15.62;100.00;96622.88;110094;1247;68452;-70
2022/08/15 01:44:53;;;;;;;7.70;5.80;;;;;;;15.64;100.00;96617.49;109745;1249;68704;-70
2022/08/15 01:47:42;;;;;;;8.10;5.60;;;;;;;15.64;100.00;96607.48;110097;1247;59751;-70
2022/08/15 01:50:26;;;;;;;8.30;6.20;;;;;;;15.64;100.00;96611.83;110398;1247;59705;-68
2022/08/15 01:53:09;;;;;;;8.00;5.80;;;;;;;15.64;100.00;96622.87;110489;1247;70513;-70
2022/08/15 01:55:53;;;;;;;8.40;6.30;;;;;;;15.65;100.00;96632.12;109887;1247;67880;-70
2022/08/15 01:58:29;;;;;;;10.50;6.80;;;;;;;15.63;99.09;96633.52;109954;1247;68673;-70
2022/08/15 02:01:11;;;;;;;10.30;7.00;;;;;;;15.61;99.01;96633.95;109777;1248;59752;-67
2022/08/15 02:03:44;;;;;;;13.20;8.40;;;;;;;15.55;98.22;96632.40;110095;1247;59764;-70
2022/08/15 02:06:25;;;;;;;10.10;6.80;;;;;;;15.51;98.49;96632.33;110118;1247;71742;-70
2022/08/15 02:09:17;;;;;;;10.30;7.30;;;;;;;15.48;99.46;96632.64;109812;1247;68699;-70
2022/08/15 02:12:10;;;;;;;11.00;8.00;;;;;;;15.42;100.00;96629.80;110185;1247;69439;-69
2022/08/15 02:15:07;;;;;;;8.70;6.40;;;;;;;15.35;100.00;96630.70;110050;1247;59634;-70
2022/08/15 02:17:38;;;;;;;12.20;7.30;;;;;;;15.30;100.00;96625.42;110202;1247;59739;-70
2022/08/15 02:20:13;;;;;;;12.60;8.50;;;;;;;15.25;100.00;96619.71;110171;1246;70710;-72
2022/08/15 02:22:55;;;;;;;12.50;8.60;;;;;;;15.22;100.00;96618.55;110204;1247;68909;-70
2022/08/15 02:25:26;;;;;;;11.50;7.70;;;;;;;15.17;100.00;96620.58;110089;1245;69320;-71
2022/08/15 02:28:06;;;;;;;9.80;6.60;;;;;;;15.14;100.00;96621.61;110074;1247;60071;-70
2022/08/15 02:30:59;;;;;;;9.70;7.10;;;;;;;15.12;100.00;96622.71;110121;1247;59685;-70
2022/08/15 02:33:31;;;;;;;7.90;5.80;;;;;;;15.10;100.00;96616.72;110219;1246;71347;-70
2022/08/15 02:36:06;;;;;;;9.00;6.40;;;;;;;15.09;99.95;96613.57;110134;1248;69264;-70
2022/08/15 02:38:42;;;;;;;9.20;5.80;;;;;;;15.08;100.00;96612.29;110180;1246;68635;-70
2022/08/15 02:41:34;;;;;;;10.80;6.50;;;;;;;15.06;100.00;96609.83;110155;1246;59671;-69
2022/08/15 02:44:12;;;;;;;8.50;5.40;;;;;;;15.02;100.00;96609.30;109906;1247;59694;-69
2022/08/15 02:47:03;;;;;;;7.50;5.60;;;;;;;14.99;100.00;96612.14;110135;1247;70750;-71
2022/08/15 02:49:39;;;;;;;9.20;6.80;;;;;;;14.95;100.00;96609.36;110147;1247;68485;-69
2022/08/15 02:52:19;;;;;;;;;;;;;;;14.92;100.00;96610.73;110153;1247;68565;-71
2022/08/15 02:54:56;;;;;;;11.50;7.50;;;;;;;14.89;100.00;96606.73;110154;1247;59762;-71
2022/08/15 02:57:34;;;;;;;12.70;8.00;;;;;;;14.86;100.00;96601.96;110659;1247;59719;-71
2022/08/15 03:00:26;;;;;;;12.50;7.00;;;;;;;14.82;99.88;96598.09;110313;1247;71970;-71
2022/08/15 03:03:06;;;;;;;8.70;5.80;;;;;;;14.80;99.96;96597.98;110033;1248;68597;-70
2022/08/15 03:05:47;;;;;;;8.20;5.30;;;;;;;14.78;99.99;96598.16;110074;1248;68456;-70
2022/08/15 03:08:25;;;;;;;6.70;4.80;;;;;;;14.75;99.43;96594.58;110074;1247;59763;-72
2022/08/15 03:10:57;;;;;;;9.30;6.50;;;;;;;14.72;99.30;96590.11;110007;1247;59710;-71
2022/08/15 03:13:31;;;;;;;8.90;5.80;;;;;;;14.71;100.00;96595.23;109679;1248;70760;-70
2022/08/15 03:16:11;;;;;;;10.60;6.90;;;;;;;14.69;100.00;96594.55;110151;1247;69397;-71
2022/08/15 03:18:44;;;;;;;10.00;7.10;;;;;;;14.66;100.00;96596.74;110115;1247;68664;-72
2022/08/15 03:21:21;;;;;;;9.00;6.20;;;;;;;14.65;100.00;96598.41;110023;1247;59678;-68
2022/08/15 03:23:50;;;;;;;;;;;;;;;14.66;100.00;96598.19;110051;1248;59631;-69
2022/08/15 03:26:25;;;;;;;8.40;5.20;;;;;;;14.66;100.00;96598.65;110146;1247;71411;-71
2022/08/15 03:29:18;;;;;;;8.20;5.30;;;;;;;14.67;100.00;96595.46;110104;1247;69712;-70
2022/08/15 03:31:51;;;;;;;9.20;5.80;;;;;;;14.67;100.00;96594.21;110029;1248;69334;-71
2022/08/15 03:34:26;;;;;;;10.70;7.70;;;;;;;14.67;100.00;96600.61;109897;1250;59759;-70
2022/08/15 03:37:01;;;;;;;10.30;6.90;;;;;;;14.67;100.00;96603.65;109735;1250;59741;-71
2022/08/15 03:39:33;;;;;;;10.80;7.50;;;;;;;14.67;99.77;96605.35;110192;1247;70631;-71
2022/08/15 03:42:10;;;;;;;10.20;6.60;;;;;;;14.68;98.11;96609.66;109757;1247;68413;-69
2022/08/15 03:44:47;;;;;;;9.70;6.50;;;;;;;14.69;97.42;96609.20;109996;1247;69553;-71
2022/08/15 03:47:21;;;;;;;11.30;7.60;;;;;;;14.71;98.18;96603.80;109863;1248;59721;-70
2022/08/15 03:49:50;;;;;;;10.70;6.70;;;;;;;14.74;99.91;96604.73;109933;1248;59676;-71
2022/08/15 03:52:55;;;;;;;10.90;7.20;;;;;;;14.79;100.00;96607.50;110037;1247;70748;-70
2022/08/15 03:55:28;;;;;;;13.60;7.90;;;;;;;14.82;100.00;96608.25;110027;1248;69226;-70
2022/08/15 03:57:58;;;;;;;12.20;7.50;;;;;;;14.86;100.00;96609.79;109853;1248;69488;-70
2022/08/15 04:00:37;;;;;;;11.30;6.70;;;;;;;14.92;100.00;96607.98;110195;1247;59754;-67
2022/08/15 04:03:14;;;;;;;11.90;7.60;;;;;;;14.96;99.93;96613.61;110324;1247;59636;-71
2022/08/15 04:05:49;;;;;;;15.30;7.50;;;;;;;15.02;98.61;96613.52;110171;1248;69714;-71
2022/08/15 04:08:23;;;;;;;11.40;7.70;;;;;;;15.04;98.53;96616.15;110029;1250;69555;-72
2022/08/15 04:11:14;;;;;;;14.80;7.20;;;;;;;15.12;100.00;96618.91;110191;1247;68504;-69
2022/08/15 04:13:45;;;;;;;10.70;7.10;;;;;;;15.19;99.99;96621.44;110078;1248;59703;-69
2022/08/15 04:16:20;;;;;;;11.60;8.00;;;;;;;15.26;100.00;96618.89;110180;1247;59696;-69
2022/08/15 04:19:10;;;;;;;9.10;6.50;;;;;;;15.36;99.88;96621.62;110192;1247;71506;-69
2022/08/15 04:21:40;;;;;;;10.10;7.60;;;;;;;15.44;99.39;96623.45;109884;1249;69778;-69
2022/08/15 04:24:19;;;;;;;12.00;8.10;;;;;;;15.54;100.00;96623.77;110052;1247;69504;-69
2022/08/15 04:26:56;;;;;;;10.50;7.30;;;;;;;15.63;100.00;96622.98;110050;1250;59749;-69
2022/08/15 04:29:28;;;;;;;9.60;6.00;;;;;;;15.78;100.00;96622.63;110078;1248;59630;-70
2022/08/15 04:32:00;;;;;;;8.30;5.60;;;;;;;15.93;99.62;96621.90;110005;1247;71501;-71
2022/08/15 04:34:29;;;;;;;6.60;5.00;;;;;;;16.08;98.67;96628.38;110245;1247;68666;-72
2022/08/15 04:37:20;;;;;;;9.90;5.40;;;;;;;16.24;97.92;96629.30;110049;1247;68679;-70
2022/08/15 04:39:53;;;;;;;7.30;4.80;;;;;;;16.36;96.29;96632.73;109723;1250;59688;-70
2022/08/15 04:42:26;;;;;;;6.50;5.10;;;;;;;16.51;96.16;96630.45;109809;1248;59815;-70
2022/08/15 04:44:58;;;;;;;6.40;4.50;;;;;;;16.69;95.01;96627.39;109979;1249;71527;-70
2022/08/15 04:47:29;;;;;;;5.40;4.20;;;;;;;16.94;93.96;96632.63;109787;1250;68586;-71
2022/08/15 04:50:06;;;;;;;5.30;4.30;;;;;;;17.20;92.85;96630.95;110188;1247;69141;-71
2022/08/15 04:52:53;;;;;;;7.00;4.40;;;;;;;17.45;91.36;96629.30;108271;1250;2239837;-70
2022/08/15 04:55:26;;;;;;;7.00;5.30;;;;;;;17.68;90.76;96625.81;109856;1250;59758;-71
2022/08/15 04:58:14;;;;;;;7.80;4.90;;;;;;;17.84;89.29;96623.88;110116;1247;71927;-70
2022/08/15 05:01:09;;;;;;;7.30;5.90;;;;;;;17.99;87.97;96625.29;110120;1247;68614;-70
2022/08/15 05:03:44;;;;;;;7.20;5.30;;;;;;;18.01;86.84;96622.20;110092;1247;68595;-72
2022/08/15 05:06:23;;;;;;;7.80;5.80;;;;;;;18.02;86.14;96625.80;110063;1247;59742;-73
2022/08/15 05:09:03;;;;;;;7.60;6.10;;;;;;;17.94;86.59;96630.24;110814;1249;59640;-71
2022/08/15 05:11:33;;;;;;;7.80;5.70;;;;;;;17.91;86.76;96636.46;110175;1247;70753;-70
2022/08/15 05:14:23;;;;;;;8.20;5.40;;;;;;;17.87;87.37;96639.20;110021;1247;69873;-70
2022/08/15 05:17:13;;;;;;;6.90;5.20;;;;;;;17.93;87.29;96638.81;109986;1248;69846;-70
2022/08/15 05:19:44;;;;;;;7.00;4.90;;;;;;;18.04;86.78;96639.39;110161;1247;59684;-70
2022/08/15 05:22:13;;;;;;;6.00;4.70;;;;;;;18.20;87.13;96647.05;109965;1248;59689;-70
2022/08/15 05:24:43;;;;;;;4.30;3.60;;;;;;;18.46;86.76;96643.85;109832;1250;71350;-70
2022/08/15 05:27:12;;;;;;;5.90;4.10;;;;;;;18.74;85.51;96637.67;109973;1248;69473;-69
2022/08/15 05:29:47;;;;;;;6.20;4.80;;;;;;;19.16;84.35;96637.69;110074;1247;69451;-70
2022/08/15 05:32:16;;;;;;;6.20;4.20;;;;;;;19.47;81.17;96638.93;109781;1247;59681;-70
2022/08/15 05:34:48;;;;;;;6.40;4.60;;;;;;;19.75;81.87;96648.09;109817;1250;59711;-70
2022/08/15 05:37:18;;;;;;;5.60;4.30;;;;;;;20.05;82.01;96647.38;109767;1248;71516;-70
2022/08/15 05:39:51;;;;;;;6.10;4.30;;;;;;;20.14;78.71;96643.71;109839;1247;69179;-72
2022/08/15 05:42:34;;;;;;;6.90;5.00;;;;;;;20.22;78.43;96643.41;109839;1248;68635;-73
2022/08/15 05:45:14;;;;;;;6.30;4.90;;;;;;;20.31;78.67;96646.56;109827;1248;59760;-72
2022/08/15 05:48:07;;;;;;;6.40;4.10;;;;;;;20.41;77.41;96648.85;110063;1247;59656;-72
2022/08/15 05:50:57;;;;;;;5.90;4.00;;;;;;;20.51;76.91;96652.42;110061;1247;71342;-72
2022/08/15 05:53:48;;;;;;;5.00;3.70;;;;;;;20.65;75.08;96650.46;110071;1247;69229;-72
2022/08/15 05:56:39;;;;;;;4.60;3.50;;;;;;;20.86;75.50;96641.94;110178;1246;70019;-75
2022/08/15 05:59:13;;;;;;;5.20;4.00;;;;;;;21.03;74.18;96641.67;110162;1248;59732;-72
2022/08/15 06:01:55;;;;;;;6.30;4.40;;;;;;;21.18;73.47;96643.02;109968;1247;59845;-72
2022/08/15 06:04:58;;;;;;;5.30;3.80;;;;;;;21.51;72.99;96643.58;110301;1248;71556;-73
2022/08/15 06:07:28;;;;;;;5.60;4.10;;;;;;;21.75;72.02;96651.09;109702;1247;70031;-73
2022/08/15 06:10:27;;;;;;;7.40;3.90;;;;;;;21.76;70.50;96653.44;110008;1247;69060;-74
2022/08/15 06:13:32;;;;;;;4.70;3.70;;;;;;;21.82;72.27;96657.14;110701;1248;59693;-75
2022/08/15 06:16:06;;;;;;;5.20;3.80;;;;;;;21.87;72.02;96660.01;109855;1247;59697;-76
2022/08/15 06:19:02;;;;;;;6.70;4.20;;;;;;;21.90;71.82;96660.83;110091;1248;70743;-75
2022/08/15 06:21:35;;;;;;;5.10;3.50;;;;;;;21.76;70.14;96663.38;110123;1247;69818;-73
2022/08/15 06:24:26;;;;;;;5.50;4.00;;;;;;;21.58;70.01;96661.52;110155;1247;69862;-75
2022/08/15 06:27:22;;;;;;;5.50;3.80;;;;;;;21.52;70.47;96657.32;110005;1250;59727;-75
2022/08/15 06:30:51;;;;;;;6.40;4.60;;;;;;;21.62;70.81;96658.27;110016;1250;59683;-72
2022/08/15 06:33:51;;;;;;;4.90;3.90;;;;;;;21.67;70.72;96655.69;110218;1247;71543;-76
2022/08/15 06:36:36;;;;;;;5.70;4.20;;;;;;;21.79;70.13;96659.28;110034;1247;69430;-74
2022/08/15 06:40:05;;;;;;;5.50;3.90;;;;;;;21.76;70.53;96661.48;110180;1247;68649;-71
2022/08/15 06:42:40;;;;;;;5.30;3.70;;;;;;;21.72;70.21;96658.94;109583;1250;59774;-72
2022/08/15 06:45:33;;;;;;;7.30;4.30;;;;;;;21.66;70.25;96660.15;110255;1248;59667;-71
2022/08/15 06:48:14;;;;;;;5.30;3.70;;;;;;;21.61;70.11;96661.58;110128;1248;71556;-69
2022/08/15 06:51:10;;;;;;;5.70;4.20;;;;;;;21.64;69.84;96659.58;110514;1247;68641;-70
2022/08/15 06:53:55;;;;;;;3.80;3.10;;;;;;;21.79;69.80;96657.29;110090;1247;69857;-72
2022/08/15 06:56:40;;;;;;;5.60;3.90;;;;;;;22.18;69.45;96651.17;109903;1248;59761;-70
2022/08/15 06:59:22;;;;;;;5.10;3.20;;;;;;;22.60;67.24;96645.90;109898;1248;59737;-71
2022/08/15 07:02:36;;;;;;;4.20;3.30;;;;;;;23.10;64.90;96642.19;110111;1246;71880;-71
2022/08/15 07:05:27;;;;;;;5.70;3.80;;;;;;;23.35;64.71;96643.55;109849;1247;69264;-70
2022/08/15 07:08:14;;;;;;;3.90;3.50;;;;;;;23.59;63.65;96646.83;110036;1248;69395;-72
2022/08/15 07:11:08;;;;;;;6.00;4.00;;;;;;;23.96;63.22;96643.70;109732;1248;59815;-70
2022/08/15 07:14:13;;;;;;;5.90;3.70;;;;;;;24.24;62.38;96642.41;110097;1247;59669;-71
2022/08/15 07:17:12;;;;;;;4.50;3.20;;;;;;;24.61;59.16;96638.99;110548;1248;71642;-70
2022/08/15 07:19:45;;;;;;;6.60;3.80;;;;;;;24.81;57.56;96643.40;110376;1247;69124;-72
2022/08/15 07:22:39;;;;;;;5.60;3.60;;;;;;;25.33;58.56;96646.52;109749;1248;69865;-71
2022/08/15 07:25:19;;;;;;;4.70;3.50;;;;;;;25.57;56.14;96649.70;110079;1247;59752;-71
2022/08/15 07:28:01;;;;;;;5.80;3.10;;;;;;;25.87;56.41;96647.52;110067;1247;59679;-70
2022/08/15 07:30:44;;;;;;;4.50;3.40;;;;;;;26.09;53.72;96645.96;109664;1250;71434;-71
2022/08/15 07:33:40;;;;;;;4.50;3.80;;;;;;;26.15;54.02;96648.34;110067;1247;68370;-71
2022/08/15 07:36:22;;;;;;;5.80;3.70;;;;;;;26.25;53.54;96645.13;109880;1247;70207;-70
2022/08/15 07:39:19;;;;;;;4.50;3.20;;;;;;;26.29;53.82;96651.52;110097;1247;59688;-71
2022/08/15 07:42:18;;;;;;;4.30;3.40;;;;;;;26.83;53.35;96648.73;110073;1247;59675;-69
2022/08/15 07:45:34;;;;;;;4.10;3.40;;;;;;;27.24;53.22;96646.49;110084;1247;71520;-71
2022/08/15 07:48:27;;;;;;;4.20;2.60;;;;;;;27.47;51.58;96647.51;110102;1247;68636;-71
2022/08/15 07:51:05;;;;;;;3.50;2.90;;;;;;;27.78;50.12;96646.11;110124;1248;69852;-70
2022/08/15 07:53:55;;;;;;;4.40;3.10;;;;;;;28.14;50.64;96644.69;110097;1247;59750;-72
2022/08/15 07:56:32;;;;;;;4.20;3.20;;;;;;;28.27;48.91;96642.61;109751;1250;60142;-70
2022/08/15 07:59:10;;;;;;;;;;;;;;;28.11;48.94;96636.41;110106;1247;71623;-71
2022/08/15 08:01:46;;;;;;;5.40;3.10;;;;;;;28.22;49.28;96637.23;109681;1250;70049;-71
2022/08/15 08:04:27;;;;;;;4.80;3.00;;;;;;;28.64;49.34;96638.20;110066;1247;69258;-71
2022/08/15 08:07:04;;;;;;;3.70;2.70;;;;;;;28.96;48.00;96638.85;110048;1247;59740;-71
2022/08/15 08:09:43;;;;;;;3.50;3.00;;;;;;;29.01;47.19;96640.55;110105;1247;59675;-71
2022/08/15 08:12:39;;;;;;;3.90;2.90;;;;;;;29.12;47.72;96636.98;109724;1247;71958;-71
2022/08/15 08:15:44;;;;;;;3.90;3.20;;;;;;;29.19;47.99;96635.70;109714;1248;69345;-72
2022/08/15 08:18:32;;;;;;;5.30;3.80;;;;;;;29.34;47.20;96635.58;110303;1247;69458;-72
2022/08/15 08:21:06;;;;;;;3.80;3.20;;;;;;;29.10;46.32;96627.80;110078;1247;59715;-71
2022/08/15 08:23:50;;;;;;;4.60;3.20;;;;;;;28.81;46.28;96627.27;109906;1249;59676;-71
2022/08/15 08:26:38;;;;;;;3.60;2.90;;;;;;;28.90;47.84;96627.31;110099;1248;71998;-69
2022/08/15 08:29:29;;;;;;;3.70;2.90;;;;;;;29.12;45.39;96629.95;109986;1250;69798;-71
2022/08/15 08:32:27;;;;;;;4.90;3.30;;;;;;;29.14;44.46;96631.10;109677;1249;68467;-70
2022/08/15 08:34:57;;;;;;;5.10;3.70;;;;;;;28.98;44.03;96630.65;110025;1248;59703;-71
2022/08/15 08:37:32;;;;;;;5.50;3.70;;;;;;;28.74;44.52;96628.66;110016;1248;59614;-71
2022/08/15 08:41:24;;;;;;;5.20;3.60;;;;;;;28.31;44.58;96629.20;110106;1248;71628;-71
2022/08/15 08:42:56;;;;;;;5.00;3.00;;;;;;;28.17;44.79;96625.46;110123;1246;69401;-71
2022/08/15 08:46:01;;;;;;;4.50;3.10;;;;;;;28.05;45.50;96623.80;110086;1248;68570;-70
2022/08/15 08:48:47;;;;;;;3.60;2.70;;;;;;;28.70;44.14;96624.09;110042;1247;59741;-72
2022/08/15 08:51:42;;;;;;;3.90;3.00;;;;;;;29.34;42.38;96616.20;110132;1248;59729;-72
2022/08/15 08:54:36;;;;;;;4.60;3.10;;;;;;;29.40;40.99;96613.89;110147;1247;71355;-70
2022/08/15 08:57:31;;;;;;;4.50;3.40;;;;;;;28.78;44.08;96610.34;110120;1248;69211;-71
2022/08/15 09:00:18;;;;;;;3.30;2.70;;;;;;;29.39;43.78;96609.53;109778;1250;70035;-73
2022/08/15 09:02:54;;;;;;;3.50;2.50;;;;;;;30.29;41.71;96608.85;110116;1248;59739;-72
2022/08/15 09:05:51;;;;;;;4.60;3.10;;;;;;;30.78;39.76;96598.47;109844;1250;59742;-72
2022/08/15 09:08:32;;;;;;;6.40;3.50;;;;;;;31.05;39.51;96591.99;110152;1247;69816;-72
2022/08/15 09:11:16;;;;;;;3.20;2.90;;;;;;;31.30;39.52;96589.34;110124;1247;69515;-73
2022/08/15 09:13:46;;;;;;;5.30;3.60;;;;;;;30.92;40.12;96584.53;110113;1247;68677;-72
2022/08/15 09:16:32;;;;;;;4.90;3.30;;;;;;;31.42;39.84;96581.23;110163;1246;59757;-72
2022/08/15 09:19:09;;;;;;;3.80;3.30;;;;;;;31.35;39.71;96583.42;110385;1248;59686;-73
2022/08/15 09:21:42;;;;;;;5.50;3.90;;;;;;;31.70;39.30;96578.64;110367;1247;71540;-72
2022/08/15 09:24:14;;;;;;;5.50;4.00;;;;;;;31.56;39.23;96577.55;110149;1247;69783;-72
2022/08/15 09:27:11;;;;;;;4.70;3.40;;;;;;;31.39;38.90;96577.34;110077;1247;68730;-71
2022/08/15 09:29:48;;;;;;;4.80;3.20;;;;;;;30.89;39.36;96578.85;110122;1247;59764;-72
2022/08/15 09:32:27;;;;;;;4.10;3.30;;;;;;;31.04;40.94;96573.05;110107;1247;59700;-73
2022/08/15 09:35:48;;;;;;;3.70;3.10;;;;;;;31.10;40.55;96577.19;110094;1247;70743;-71
2022/08/15 09:38:53;;;;;;;4.70;3.20;;;;;;;30.98;39.87;96573.89;109959;1248;69496;-72
2022/08/15 09:41:33;;;;;;;4.00;3.20;;;;;;;31.30;39.73;96569.15;110071;1247;68877;-72
2022/08/15 09:44:21;;;;;;;4.40;3.00;;;;;;;31.16;38.80;96566.05;110087;1247;59960;-72
2022/08/15 09:47:14;;;;;;;4.50;3.00;;;;;;;31.34;37.70;96569.11;110096;1247;59753;-72
2022/08/15 09:49:48;;;;;;;4.40;2.90;;;;;;;31.13;38.89;96565.29;110073;1247;72309;-73
2022/08/15 09:53:03;;;;;;;4.10;3.20;;;;;;;30.18;39.04;96568.16;110077;1247;69318;-73
2022/08/15 09:55:44;;;;;;;3.30;2.90;;;;;;;29.94;41.87;96574.17;109734;1248;67852;-72
2022/08/15 09:58:28;;;;;;;7.60;3.70;;;;;;;29.78;41.39;96571.48;110145;1247;60198;-73
2022/08/15 10:01:08;;;;;;;4.00;3.50;;;;;;;29.81;42.66;96570.61;110201;1247;59699;-72
2022/08/15 10:04:01;;;;;;;3.30;2.70;;;;;;;29.81;42.19;96573.80;110081;1247;72283;-71
2022/08/15 10:06:53;;;;;;;4.20;3.30;;;;;;;30.06;41.23;96577.15;110012;1250;67936;-73
2022/08/15 10:09:28;;;;;;;3.60;2.50;;;;;;;30.30;40.12;96575.39;110021;1250;68844;-72
2022/08/15 10:12:06;;;;;;;2.90;2.40;;;;;;;30.74;39.49;96572.54;110063;1249;59746;-69
2022/08/15 10:14:42;;;;;;;4.20;2.40;;;;;;;31.30;38.35;96574.17;110104;1250;59735;-72
2022/08/15 10:17:37;;;;;;;3.60;2.70;;;;;;;31.86;36.20;96573.06;110055;1250;70903;-71
2022/08/15 10:20:26;;;;;;;3.90;3.10;;;;;;;32.18;35.68;96573.39;110043;1250;69055;-73
2022/08/15 10:23:05;;;;;;;3.70;2.70;;;;;;;31.66;34.85;96577.27;110017;1247;69531;-72
2022/08/15 10:25:39;;;;;;;3.50;2.80;;;;;;;32.38;35.35;96575.54;110068;1250;59758;-72
2022/08/15 10:28:21;;;;;;;3.20;2.90;;;;;;;32.33;36.41;96579.25;110269;1247;59673;-72
2022/08/15 10:31:10;;;;;;;4.20;3.40;;;;;;;33.22;34.87;96576.48;110531;1250;71525;-72
2022/08/15 10:33:52;;;;;;;4.00;3.50;;;;;;;33.87;33.61;96575.98;109798;1250;69772;-72
2022/08/15 10:36:34;;;;;;;4.40;3.40;;;;;;;34.60;32.42;96574.16;110055;1250;69615;-72
2022/08/15 10:39:36;;;;;;;3.40;2.80;;;;;;;34.85;30.71;96566.94;110064;1250;59688;-72
2022/08/15 10:42:37;;;;;;;3.80;3.40;;;;;;;34.01;30.87;96562.15;109786;1250;59649;-72
2022/08/15 10:45:16;;;;;;;3.40;3.10;;;;;;;34.51;32.01;96562.13;109831;1250;70791;-72
2022/08/15 10:48:10;;;;;;;3.60;3.30;;;;;;;35.07;30.52;96555.30;110027;1250;69722;-72
2022/08/15 10:50:48;;;;;;;3.30;2.50;;;;;;;35.53;30.19;96552.39;109841;1250;69960;-72
2022/08/15 10:53:39;;;;;;;5.90;4.40;;;;;;;35.65;29.45;96549.34;110033;1249;59729;-72
2022/08/15 10:56:26;;;;;;;4.60;3.30;;;;;;;35.81;29.74;96550.64;109816;1250;59689;-72
2022/08/15 10:59:18;;;;;;;3.90;2.80;;;;;;;35.62;28.81;96549.65;110055;1248;72127;-73
2022/08/15 11:01:51;;;;;;;3.70;2.90;;;;;;;35.18;29.08;96549.95;109807;1250;68941;-71
2022/08/15 11:04:34;;;;;;;5.50;3.00;;;;;;;34.65;30.26;96543.98;110057;1248;69571;-73
2022/08/15 11:07:28;;;;;;;3.70;2.90;;;;;;;34.99;30.12;96542.80;109988;1250;59764;-72
2022/08/15 11:10:00;;;;;;;3.40;2.80;;;;;;;35.11;29.65;96540.05;109999;1250;59682;-73
2022/08/15 11:12:36;;;;;;;5.10;4.50;;;;;;;35.28;29.71;96536.04;110021;1247;72055;-73
2022/08/15 11:15:37;;;;;;;5.00;3.80;;;;;;;35.38;29.21;96536.14;110014;1250;69456;-72
2022/08/15 11:18:09;;;;;;;5.10;3.90;;;;;;;35.05;29.13;96528.64;110458;1249;69463;-71
2022/08/15 11:20:55;;;;;;;3.40;2.90;;;;;;;34.63;29.70;96524.30;109890;1250;59741;-71
2022/08/15 11:23:39;;;;;;;3.50;3.00;;;;;;;35.13;29.49;96519.33;110133;1247;59701;-72
2022/08/15 11:26:12;;;;;;;4.20;3.20;;;;;;;34.76;29.60;96519.73;110196;1248;71116;-71
2022/08/15 11:29:17;;;;;;;3.80;3.20;;;;;;;35.23;29.23;96515.15;110028;1250;70167;-72
2022/08/15 11:31:58;;;;;;;3.30;2.60;;;;;;;35.85;29.14;96512.06;110056;1250;69857;-70
2022/08/15 11:34:47;;;;;;;3.90;3.30;;;;;;;36.55;28.51;96510.73;110285;1247;59700;-71
2022/08/15 11:37:29;;;;;;;3.80;3.50;;;;;;;36.26;27.87;96509.59;110223;1248;59658;-71
2022/08/15 11:39:58;;;;;;;3.30;2.50;;;;;;;35.64;28.70;96507.70;110158;1248;72260;-71
2022/08/15 11:42:32;;;;;;;4.40;2.90;;;;;;;35.71;29.11;96511.14;110314;1247;69848;-71
2022/08/15 11:45:05;;;;;;;4.80;3.10;;;;;;;35.36;29.66;96509.55;110277;1247;67874;-71
2022/08/15 11:47:43;;;;;;;4.80;3.40;;;;;;;34.78;30.13;96503.32;110176;1248;59763;-71
2022/08/15 11:50:21;;;;;;;4.80;3.00;;;;;;;34.03;31.16;96506.39;110199;1247;59751;-71
2022/08/15 11:52:54;;;;;;;4.60;2.80;;;;;;;33.37;32.70;96499.96;110208;1248;71606;-71
2022/08/15 11:55:30;;;;;;;3.80;3.00;;;;;;;32.97;32.65;96495.62;110192;1248;69808;-71
2022/08/15 11:58:01;;;;;;;4.80;3.30;;;;;;;32.12;34.90;96492.14;110174;1248;69555;-71
2022/08/15 12:00:50;;;;;;;3.80;3.20;;;;;;;31.78;35.18;96492.65;110140;1247;59754;-71
2022/08/15 12:03:27;;;;;;;4.00;3.10;;;;;;;31.34;36.08;96496.11;110179;1248;59764;-72
2022/08/15 12:06:21;;;;;;;4.10;3.00;;;;;;;31.20;37.31;96495.08;110001;1248;72457;-71
2022/08/15 12:09:19;;;;;;;4.80;3.00;;;;;;;30.87;37.76;96493.02;110287;1247;69525;-72
2022/08/15 12:12:37;;;;;;;3.80;2.90;;;;;;;30.65;38.29;96488.29;110277;1247;69561;-72
2022/08/15 12:15:15;;;;;;;4.90;3.70;;;;;;;30.42;38.14;96491.65;110019;1248;59746;-71
2022/08/15 12:18:09;;;;;;;4.30;3.40;;;;;;;30.11;38.74;96487.38;110288;1247;59688;-71
2022/08/15 12:21:03;;;;;;;3.50;3.10;;;;;;;30.04;39.11;96485.54;110647;1247;71877;-71
2022/08/15 12:23:42;;;;;;;3.70;2.70;;;;;;;29.89;39.43;96490.46;110553;1248;68613;-71
2022/08/15 12:26:19;;;;;;;4.30;3.50;;;;;;;29.98;37.59;96482.49;110193;1248;69438;-71
2022/08/15 12:29:08;;;;;;;4.30;3.10;;;;;;;29.98;37.31;96480.89;110194;1247;59716;-72
2022/08/15 12:31:40;;;;;;;3.90;3.30;;;;;;;30.28;37.02;96476.08;110354;1248;60079;-69
2022/08/15 12:34:14;;;;;;;5.00;3.30;;;;;;;30.57;37.79;96472.91;110198;1248;71387;-71
2022/08/15 12:37:03;;;;;;;4.10;2.90;;;;;;;31.43;37.50;96480.52;110214;1248;69206;-72
2022/08/15 12:39:43;;;;;;;3.50;3.00;;;;;;;31.82;34.81;96482.23;110128;1248;69556;-72
2022/08/15 12:42:19;;;;;;;3.60;2.60;;;;;;;32.24;35.08;96481.15;110138;1250;59713;-71